Time;durP1;ratioP1;P1;durP2;ratioP2;P2;SDS_P1;SDS_P2;PMS_P1;PMS_P2;Temp;Humidity;BMP_temperature;BMP_pressure;BME280_temperature;BME280_humidity;BME280_pressure;Samples;Min_cycle;Max_cycle;Signal;HPM_P1;HPM_P2
2022/01/26 00:06:39;;;;;;;18.20;11.25;;;;;;;;;;5094513;28;20071;-79
2022/01/26 00:09:06;;;;;;;12.52;6.10;;;;;;;;;;5093999;28;20086;-81
2022/01/26 00:11:32;;;;;;;14.68;8.27;;;;;;;;;;5094266;28;20047;-82
2022/01/26 00:14:00;;;;;;;13.80;7.20;;;;;;;;;;5094235;28;20394;-82
2022/01/26 00:16:28;;;;;;;17.25;9.30;;;;;;;;;;5094112;28;20024;-80
2022/01/26 00:19:21;;;;;;;14.30;8.55;;;;;;;;;;5092891;28;20471;-82
2022/01/26 00:21:50;;;;;;;15.00;9.38;;;;;;;;;;5092665;28;20024;-81
2022/01/26 00:29:31;;;;;;;22.45;9.18;;;;;;;;;;5093873;28;20403;-82
2022/01/26 00:43:11;;;;;;;16.17;8.07;;;;;;;;;;5071371;28;20036;-86
2022/01/26 00:45:38;;;;;;;17.65;9.18;;;;;;;;;;5083475;28;20040;-81
2022/01/26 00:48:07;;;;;;;14.90;8.48;;;;;;;;;;5092504;28;20120;-83
2022/01/26 00:50:34;;;;;;;16.25;8.38;;;;;;;;;;5093301;28;20483;-82
2022/01/26 00:53:00;;;;;;;14.35;7.88;;;;;;;;;;5093648;28;20048;-82
2022/01/26 00:55:27;;;;;;;15.68;9.10;;;;;;;;;;5093401;28;20024;-82
2022/01/26 00:57:53;;;;;;;13.88;7.20;;;;;;;;;;5093490;28;20085;-82
2022/01/26 01:00:29;;;;;;;17.60;9.57;;;;;;;;;;5091940;28;20501;-83
2022/01/26 01:02:56;;;;;;;16.23;9.38;;;;;;;;;;5092201;28;20035;-84
2022/01/26 01:05:36;;;;;;;14.80;8.98;;;;;;;;;;5091835;28;20024;-84
2022/01/26 01:08:07;;;;;;;17.40;8.18;;;;;;;;;;5091956;28;20501;-82
2022/01/26 01:10:33;;;;;;;14.85;9.00;;;;;;;;;;5093107;28;20043;-81
2022/01/26 01:13:01;;;;;;;16.45;8.02;;;;;;;;;;5093170;28;20576;-83
2022/01/26 01:15:28;;;;;;;14.73;7.60;;;;;;;;;;5092669;28;20906;-80
2022/01/26 01:18:04;;;;;;;13.13;7.88;;;;;;;;;;5093077;28;20039;-82
2022/01/26 01:21:14;;;;;;;16.95;8.07;;;;;;;;;;5092234;28;20379;-87
2022/01/26 01:31:18;;;;;;;14.32;6.47;;;;;;;;;;5092729;28;20042;-81
2022/01/26 01:33:47;;;;;;;17.17;8.75;;;;;;;;;;5091625;28;20059;-82
2022/01/26 01:36:13;;;;;;;14.23;7.63;;;;;;;;;;5091407;28;20032;-82
2022/01/26 01:38:42;;;;;;;12.88;8.02;;;;;;;;;;5092931;28;20467;-81
2022/01/26 01:41:09;;;;;;;15.00;7.82;;;;;;;;;;5092674;28;20031;-83
2022/01/26 01:43:37;;;;;;;11.93;7.60;;;;;;;;;;5092851;28;20025;-83
2022/01/26 01:46:04;;;;;;;14.23;7.60;;;;;;;;;;5092513;28;20028;-81
2022/01/26 01:48:32;;;;;;;16.98;9.00;;;;;;;;;;5092483;28;20036;-81
2022/01/26 01:51:00;;;;;;;12.70;6.85;;;;;;;;;;5091215;28;20543;-83
2022/01/26 01:53:38;;;;;;;13.73;8.43;;;;;;;;;;5092659;28;20121;-82
2022/01/26 01:56:05;;;;;;;22.05;9.07;;;;;;;;;;5091490;28;20439;-82
2022/01/26 01:58:31;;;;;;;18.60;9.35;;;;;;;;;;5092600;28;20031;-81
2022/01/26 02:00:58;;;;;;;14.90;7.88;;;;;;;;;;5092425;28;20463;-81
2022/01/26 02:03:24;;;;;;;16.15;7.90;;;;;;;;;;5092590;28;20027;-82
2022/01/26 02:05:54;;;;;;;15.88;8.18;;;;;;;;;;5092370;28;20028;-83
2022/01/26 02:08:20;;;;;;;18.17;9.43;;;;;;;;;;5092541;28;20046;-82
2022/01/26 02:10:47;;;;;;;15.75;8.40;;;;;;;;;;5091068;28;20028;-83
2022/01/26 02:13:34;;;;;;;15.60;10.57;;;;;;;;;;5092284;28;20490;-82
2022/01/26 03:02:03;;;;;;;18.05;9.85;;;;;;;;;;5053552;28;20040;-83
2022/01/26 03:07:06;;;;;;;16.23;9.52;;;;;;;;;;5095705;28;20049;-82
2022/01/26 03:09:45;;;;;;;17.30;9.15;;;;;;;;;;5095584;28;20039;-82
2022/01/26 03:12:16;;;;;;;13.40;8.52;;;;;;;;;;5094372;28;20036;-82
2022/01/26 03:14:50;;;;;;;15.35;7.95;;;;;;;;;;5095403;28;20459;-83
2022/01/26 03:19:50;;;;;;;19.02;10.57;;;;;;;;;;5095304;28;20473;-82
2022/01/26 03:35:18;;;;;;;17.13;9.50;;;;;;;;;;5094988;28;20437;-82
2022/01/26 03:37:54;;;;;;;14.23;8.77;;;;;;;;;;5094679;28;20478;-82
2022/01/26 03:40:29;;;;;;;17.27;9.23;;;;;;;;;;5093795;28;20032;-82
2022/01/26 03:42:55;;;;;;;15.45;8.38;;;;;;;;;;5094901;28;20115;-82
2022/01/26 03:45:21;;;;;;;16.23;9.27;;;;;;;;;;5093585;28;20063;-82
2022/01/26 03:47:47;;;;;;;20.13;10.73;;;;;;;;;;5094804;28;20542;-83
2022/01/26 03:50:13;;;;;;;25.73;14.75;;;;;;;;;;5094573;28;20060;-83
2022/01/26 03:52:40;;;;;;;17.65;9.85;;;;;;;;;;5093492;28;20035;-82
2022/01/26 03:55:06;;;;;;;15.73;8.82;;;;;;;;;;5094592;28;20024;-82
2022/01/26 03:57:32;;;;;;;19.33;11.65;;;;;;;;;;5093312;28;20463;-82
2022/01/26 03:59:58;;;;;;;24.08;12.35;;;;;;;;;;5094552;28;20024;-82
2022/01/26 04:02:24;;;;;;;22.85;10.82;;;;;;;;;;5094507;28;20493;-83
2022/01/26 04:04:56;;;;;;;24.35;11.85;;;;;;;;;;5094410;28;20024;-82
2022/01/26 04:07:23;;;;;;;17.85;10.57;;;;;;;;;;5094457;28;20077;-82
2022/01/26 04:09:49;;;;;;;18.27;10.90;;;;;;;;;;5094095;28;20106;-82
2022/01/26 04:12:15;;;;;;;19.85;9.95;;;;;;;;;;5094377;28;20024;-83
2022/01/26 04:14:47;;;;;;;16.02;8.45;;;;;;;;;;5094193;28;20037;-82
2022/01/26 04:17:13;;;;;;;16.90;9.65;;;;;;;;;;5094375;28;20032;-82
2022/01/26 04:19:40;;;;;;;29.60;14.02;;;;;;;;;;5094183;28;20095;-82
2022/01/26 04:22:16;;;;;;;33.80;20.10;;;;;;;;;;5092890;28;20035;-82
2022/01/26 04:24:48;;;;;;;25.05;12.75;;;;;;;;;;5093848;28;20463;-82
2022/01/26 04:27:34;;;;;;;24.80;12.32;;;;;;;;;;5092851;28;20063;-82
2022/01/26 04:30:00;;;;;;;22.77;13.07;;;;;;;;;;5092733;28;20126;-83
2022/01/26 04:32:27;;;;;;;16.08;9.05;;;;;;;;;;5093776;28;20024;-82
2022/01/26 04:34:53;;;;;;;15.95;10.15;;;;;;;;;;5093811;28;20551;-82
2022/01/26 04:40:06;;;;;;;12.32;7.13;;;;;;;;;;5093941;28;20035;-83
2022/01/26 04:42:51;;;;;;;15.00;8.38;;;;;;;;;;5092439;28;20444;-82
2022/01/26 04:45:16;;;;;;;;;;;;;;;;;;5094244;28;20028;-84
2022/01/26 04:47:43;;;;;;;15.15;8.10;;;;;;;;;;5092448;28;19908;-85
2022/01/26 04:50:10;;;;;;;17.38;9.43;;;;;;;;;;5092672;28;20056;-83
2022/01/26 04:52:36;;;;;;;13.85;9.02;;;;;;;;;;5093397;28;20052;-83
2022/01/26 04:55:03;;;;;;;18.00;9.52;;;;;;;;;;5093553;28;20024;-83
2022/01/26 04:57:29;;;;;;;22.90;11.60;;;;;;;;;;5093477;28;20051;-84
2022/01/26 04:59:55;;;;;;;16.92;11.05;;;;;;;;;;5093073;28;20103;-83
2022/01/26 05:02:21;;;;;;;19.17;10.05;;;;;;;;;;5093664;28;20028;-83
2022/01/26 05:04:47;;;;;;;15.57;8.38;;;;;;;;;;5093299;28;20028;-84
2022/01/26 05:07:13;;;;;;;15.35;8.88;;;;;;;;;;5093291;28;20028;-83
2022/01/26 05:10:08;;;;;;;14.80;8.30;;;;;;;;;;5093944;28;20032;-87
2022/01/26 05:12:37;;;;;;;12.93;8.48;;;;;;;;;;5091717;28;20049;-81
2022/01/26 05:15:04;;;;;;;13.18;8.90;;;;;;;;;;5092947;28;20060;-81
2022/01/26 05:17:30;;;;;;;27.42;14.32;;;;;;;;;;5093238;28;20066;-81
2022/01/26 05:19:59;;;;;;;20.63;10.52;;;;;;;;;;5093980;28;20058;-84
2022/01/26 05:22:26;;;;;;;19.92;11.07;;;;;;;;;;5093354;28;20110;-83
2022/01/26 05:24:55;;;;;;;13.85;9.13;;;;;;;;;;5092956;28;20020;-84
2022/01/26 05:27:21;;;;;;;16.33;9.35;;;;;;;;;;5091581;28;20543;-83
2022/01/26 05:29:47;;;;;;;19.40;12.48;;;;;;;;;;5091521;28;20103;-82
2022/01/26 05:32:14;;;;;;;18.55;10.15;;;;;;;;;;5092651;28;20127;-83
2022/01/26 05:34:40;;;;;;;19.45;11.73;;;;;;;;;;5092601;28;20404;-82
2022/01/26 05:37:06;;;;;;;21.10;12.60;;;;;;;;;;5092727;28;20077;-82
2022/01/26 05:39:33;;;;;;;19.70;12.05;;;;;;;;;;5092524;28;20028;-82
2022/01/26 05:42:03;;;;;;;20.13;12.15;;;;;;;;;;5091484;28;20036;-83
2022/01/26 05:44:29;;;;;;;21.30;12.02;;;;;;;;;;5092486;28;20100;-83
2022/01/26 05:46:56;;;;;;;18.48;10.15;;;;;;;;;;5092675;28;20390;-83
2022/01/26 05:49:22;;;;;;;18.67;12.30;;;;;;;;;;5092536;28;20044;-82
2022/01/26 05:51:48;;;;;;;24.50;13.48;;;;;;;;;;5092375;28;20036;-84
2022/01/26 05:54:15;;;;;;;23.90;13.38;;;;;;;;;;5092690;28;20543;-82
2022/01/26 05:56:42;;;;;;;20.92;10.80;;;;;;;;;;5092808;28;20036;-85
2022/01/26 05:59:09;;;;;;;22.35;12.68;;;;;;;;;;5092631;28;20103;-81
2022/01/26 06:01:35;;;;;;;20.35;11.73;;;;;;;;;;5092102;28;20020;-81
2022/01/26 06:04:01;;;;;;;25.48;11.57;;;;;;;;;;5091152;28;20111;-82
2022/01/26 06:06:27;;;;;;;20.10;10.93;;;;;;;;;;5067903;28;20123;-81
2022/01/26 06:08:53;;;;;;;27.45;15.77;;;;;;;;;;5070440;28;20067;-83
2022/01/26 06:11:20;;;;;;;44.42;22.65;;;;;;;;;;5071792;28;20583;-82
2022/01/26 06:13:46;;;;;;;51.35;24.73;;;;;;;;;;5070974;28;20115;-82
2022/01/26 06:16:13;;;;;;;86.95;41.33;;;;;;;;;;5068029;28;20124;-81
2022/01/26 06:18:40;;;;;;;95.75;47.95;;;;;;;;;;5051848;28;20484;-80
2022/01/26 06:21:08;;;;;;;86.28;40.95;;;;;;;;;;5051803;28;20025;-82
2022/01/26 06:23:34;;;;;;;25.38;16.67;;;;;;;;;;5050545;28;20029;-80
2022/01/26 06:26:00;;;;;;;26.95;15.98;;;;;;;;;;5051662;28;20059;-80
2022/01/26 06:28:27;;;;;;;26.33;15.43;;;;;;;;;;5056791;28;20033;-81
2022/01/26 06:31:20;;;;;;;25.13;15.52;;;;;;;;;;5070851;28;20039;-80
2022/01/26 06:33:47;;;;;;;28.00;17.85;;;;;;;;;;5065421;28;20480;-80
2022/01/26 06:36:14;;;;;;;26.10;13.15;;;;;;;;;;5071660;28;20029;-81
2022/01/26 06:38:42;;;;;;;28.23;15.07;;;;;;;;;;5071164;28;20025;-82
2022/01/26 06:41:08;;;;;;;27.05;13.98;;;;;;;;;;5071606;28;20017;-81
2022/01/26 06:43:46;;;;;;;15.45;9.23;;;;;;;;;;5071623;28;20462;-81
2022/01/26 06:46:20;;;;;;;15.50;8.20;;;;;;;;;;5069541;28;20364;-82
2022/01/26 06:51:30;;;;;;;12.63;7.55;;;;;;;;;;5065910;28;20043;-82
2022/01/26 06:53:57;;;;;;;11.40;7.50;;;;;;;;;;5057967;28;20031;-80
2022/01/26 06:56:23;;;;;;;15.25;8.00;;;;;;;;;;5068925;28;20033;-81
2022/01/26 06:58:49;;;;;;;29.33;12.98;;;;;;;;;;5070263;28;20033;-81
2022/01/26 07:01:15;;;;;;;25.63;11.05;;;;;;;;;;5070523;28;20482;-81
2022/01/26 07:03:59;;;;;;;16.88;8.73;;;;;;;;;;5070393;28;20028;-84
2022/01/26 07:06:27;;;;;;;15.30;8.35;;;;;;;;;;5069623;28;20045;-83
2022/01/26 07:08:54;;;;;;;13.90;8.30;;;;;;;;;;5068916;28;20090;-81
2022/01/26 07:11:20;;;;;;;14.15;7.72;;;;;;;;;;5070060;28;20037;-79
2022/01/26 07:13:46;;;;;;;14.93;8.30;;;;;;;;;;5070409;28;20028;-79
2022/01/26 07:21:41;;;;;;;;;;;;;;;;;;5074252;28;20046;-80
2022/01/26 07:24:08;;;;;;;20.63;11.25;;;;;;;;;;5073749;28;19909;-78
2022/01/26 07:26:34;;;;;;;22.45;13.80;;;;;;;;;;5073138;28;20093;-80
2022/01/26 07:29:05;;;;;;;15.85;8.55;;;;;;;;;;5073908;28;20044;-80
2022/01/26 07:31:34;;;;;;;23.50;12.95;;;;;;;;;;5073216;28;20478;-80
2022/01/26 07:34:00;;;;;;;24.05;13.57;;;;;;;;;;5073710;28;20451;-79
2022/01/26 07:36:26;;;;;;;14.40;8.23;;;;;;;;;;5073190;28;20081;-81
2022/01/26 07:38:55;;;;;;;13.98;8.52;;;;;;;;;;5072311;28;20028;-78
2022/01/26 07:41:21;;;;;;;18.63;9.90;;;;;;;;;;5073016;28;20025;-78
2022/01/26 07:43:48;;;;;;;15.20;9.07;;;;;;;;;;5072722;28;20036;-79
2022/01/26 07:46:14;;;;;;;16.63;8.85;;;;;;;;;;5073274;28;20039;-78
2022/01/26 07:48:41;;;;;;;40.85;20.85;;;;;;;;;;5072901;28;20055;-78
2022/01/26 07:51:07;;;;;;;21.65;12.75;;;;;;;;;;5073169;28;20415;-79
2022/01/26 07:53:34;;;;;;;15.75;8.88;;;;;;;;;;5072623;28;20498;-79
2022/01/26 07:56:00;;;;;;;14.38;9.07;;;;;;;;;;5072211;28;20038;-79
2022/01/26 07:58:26;;;;;;;26.00;11.68;;;;;;;;;;5072282;28;20029;-80
2022/01/26 08:00:52;;;;;;;24.13;13.10;;;;;;;;;;5072712;28;20035;-80
2022/01/26 08:03:21;;;;;;;25.13;11.48;;;;;;;;;;5071618;28;20023;-79
2022/01/26 08:05:47;;;;;;;27.00;14.43;;;;;;;;;;5072152;28;20063;-80
2022/01/26 08:08:14;;;;;;;33.30;16.52;;;;;;;;;;5072404;28;20398;-79
2022/01/26 08:10:41;;;;;;;38.50;19.33;;;;;;;;;;5072213;28;20427;-82
2022/01/26 08:13:07;;;;;;;37.40;17.45;;;;;;;;;;5072195;28;20033;-77
2022/01/26 08:15:33;;;;;;;33.28;18.48;;;;;;;;;;5072214;28;20089;-80
2022/01/26 08:18:02;;;;;;;40.53;23.40;;;;;;;;;;5072242;28;20803;-81
2022/01/26 08:20:28;;;;;;;47.85;25.85;;;;;;;;;;5072434;28;20039;-79
2022/01/26 08:22:56;;;;;;;37.63;21.73;;;;;;;;;;5072226;28;20423;-80
2022/01/26 08:25:22;;;;;;;41.33;22.83;;;;;;;;;;5071833;28;20032;-79
2022/01/26 08:27:56;;;;;;;55.15;29.23;;;;;;;;;;5071732;28;20064;-80
2022/01/26 08:30:22;;;;;;;48.08;27.55;;;;;;;;;;5072017;28;20045;-77
2022/01/26 08:32:48;;;;;;;31.13;16.65;;;;;;;;;;5071787;28;20035;-81
2022/01/26 08:35:14;;;;;;;26.30;12.43;;;;;;;;;;5072316;28;20032;-70
2022/01/26 08:37:41;;;;;;;34.67;15.15;;;;;;;;;;5071634;28;20021;-79
2022/01/26 08:40:07;;;;;;;25.48;13.57;;;;;;;;;;5072071;28;20029;-80
2022/01/26 08:42:33;;;;;;;32.78;14.93;;;;;;;;;;5071805;28;20028;-78
2022/01/26 08:44:59;;;;;;;35.25;19.80;;;;;;;;;;5072032;28;20736;-78
2022/01/26 08:47:26;;;;;;;32.28;19.73;;;;;;;;;;5071618;28;20506;-79
2022/01/26 08:49:52;;;;;;;29.55;14.13;;;;;;;;;;5071763;28;20040;-79
2022/01/26 08:52:18;;;;;;;20.15;10.90;;;;;;;;;;5072025;28;20036;-78
2022/01/26 08:54:44;;;;;;;19.85;12.02;;;;;;;;;;5071829;28;20032;-80
2022/01/26 08:57:10;;;;;;;15.55;8.75;;;;;;;;;;5072013;28;20024;-82
2022/01/26 08:59:36;;;;;;;13.73;8.02;;;;;;;;;;5071747;28;20025;-79
2022/01/26 09:02:02;;;;;;;12.02;7.88;;;;;;;;;;5071689;28;20447;-83
2022/01/26 09:04:28;;;;;;;15.13;8.95;;;;;;;;;;5071786;28;20118;-79
2022/01/26 09:06:57;;;;;;;14.25;8.05;;;;;;;;;;5070638;28;20060;-83
2022/01/26 09:09:26;;;;;;;11.95;7.72;;;;;;;;;;5087130;28;20036;-81
2022/01/26 09:11:55;;;;;;;13.45;8.10;;;;;;;;;;5091589;28;20024;-70
2022/01/26 09:14:24;;;;;;;24.13;11.98;;;;;;;;;;5092043;28;20115;-83
2022/01/26 09:16:53;;;;;;;46.00;15.73;;;;;;;;;;5091415;28;20382;-82
2022/01/26 09:19:28;;;;;;;27.70;11.85;;;;;;;;;;5084092;28;20032;-81
2022/01/26 09:22:04;;;;;;;37.85;16.23;;;;;;;;;;5071242;28;20118;-78
2022/01/26 09:24:31;;;;;;;46.42;17.13;;;;;;;;;;5071283;28;20021;-77
2022/01/26 09:26:58;;;;;;;50.45;19.95;;;;;;;;;;5070942;28;20119;-76
2022/01/26 09:29:25;;;;;;;16.45;8.45;;;;;;;;;;5071261;28;20111;-79
2022/01/26 09:31:51;;;;;;;14.15;8.45;;;;;;;;;;5070859;28;20111;-81
2022/01/26 09:34:18;;;;;;;20.10;11.95;;;;;;;;;;5070744;28;20075;-81
2022/01/26 09:36:44;;;;;;;33.05;21.48;;;;;;;;;;5070700;28;20737;-84
2022/01/26 09:39:12;;;;;;;39.35;22.67;;;;;;;;;;5070532;28;20487;-83
2022/01/26 09:41:39;;;;;;;28.67;16.23;;;;;;;;;;5070875;28;20021;-79
2022/01/26 09:44:05;;;;;;;35.63;19.58;;;;;;;;;;5070848;28;20016;-79
2022/01/26 09:46:31;;;;;;;46.47;26.48;;;;;;;;;;5071076;28;20394;-82
2022/01/26 09:48:58;;;;;;;15.00;9.30;;;;;;;;;;5069287;28;20045;-78
2022/01/26 09:51:24;;;;;;;12.23;8.50;;;;;;;;;;5070773;28;20047;-82
2022/01/26 09:54:11;;;;;;;18.17;11.40;;;;;;;;;;5070744;28;20060;-70
2022/01/26 09:56:38;;;;;;;16.50;10.02;;;;;;;;;;5069289;28;20056;-82
2022/01/26 09:59:04;;;;;;;18.58;11.32;;;;;;;;;;5070920;28;20039;-79
2022/01/26 10:01:49;;;;;;;14.48;9.10;;;;;;;;;;5070993;28;20025;-76
2022/01/26 10:04:36;;;;;;;19.85;11.68;;;;;;;;;;5070327;28;20031;-75
2022/01/26 10:07:03;;;;;;;15.13;9.85;;;;;;;;;;5070576;28;20047;-77
2022/01/26 10:17:38;;;;;;;19.40;11.15;;;;;;;;;;5050489;28;20044;-77
2022/01/26 10:20:06;;;;;;;16.83;10.75;;;;;;;;;;5066374;28;20118;-77
2022/01/26 10:22:36;;;;;;;23.65;13.07;;;;;;;;;;5070349;28;20032;-78
2022/01/26 10:25:09;;;;;;;19.60;12.32;;;;;;;;;;5068475;28;20028;-77
2022/01/26 10:27:39;;;;;;;21.05;13.65;;;;;;;;;;5070502;28;20032;-78
2022/01/26 10:30:06;;;;;;;23.35;13.63;;;;;;;;;;5070182;28;20043;-76
2022/01/26 10:32:35;;;;;;;156.27;49.78;;;;;;;;;;5070128;28;20020;-76
2022/01/26 10:35:02;;;;;;;160.45;52.70;;;;;;;;;;5070836;28;20775;-76
2022/01/26 10:37:29;;;;;;;16.52;10.40;;;;;;;;;;5065196;28;20039;-78
2022/01/26 10:40:08;;;;;;;27.10;15.63;;;;;;;;;;5069105;28;20063;-78
2022/01/26 10:42:34;;;;;;;20.88;12.93;;;;;;;;;;5070093;28;20507;-75
2022/01/26 10:47:38;;;;;;;16.98;10.95;;;;;;;;;;5070222;28;20032;-79
2022/01/26 10:53:17;;;;;;;15.10;10.15;;;;;;;;;;5074123;28;20558;-79
2022/01/26 10:55:44;;;;;;;13.90;9.32;;;;;;;;;;5073769;28;20194;-80
2022/01/26 10:58:10;;;;;;;18.70;12.55;;;;;;;;;;5072089;28;20033;-80
2022/01/26 11:00:37;;;;;;;19.63;11.50;;;;;;;;;;5073624;28;20028;-79
2022/01/26 11:03:04;;;;;;;11.73;6.95;;;;;;;;;;5073994;28;20028;-77
2022/01/26 11:05:30;;;;;;;14.13;10.35;;;;;;;;;;5073252;28;20056;-78
2022/01/26 11:07:59;;;;;;;16.80;10.82;;;;;;;;;;5072080;28;20090;-77
2022/01/26 11:10:32;;;;;;;14.80;10.20;;;;;;;;;;5073561;28;20028;-80
2022/01/26 11:12:58;;;;;;;16.48;12.40;;;;;;;;;;5059134;28;20388;-83
2022/01/26 11:15:24;;;;;;;15.05;10.18;;;;;;;;;;5053624;28;20448;-83
2022/01/26 11:17:51;;;;;;;23.83;13.73;;;;;;;;;;5066456;28;20102;-81
2022/01/26 11:20:18;;;;;;;17.25;9.98;;;;;;;;;;5072266;28;20025;-80
2022/01/26 11:22:55;;;;;;;19.20;12.80;;;;;;;;;;5072403;28;20143;-82
2022/01/26 11:25:23;;;;;;;22.45;12.82;;;;;;;;;;5085259;28;20028;-81
2022/01/26 11:27:57;;;;;;;17.33;11.88;;;;;;;;;;5080188;28;20368;-83
2022/01/26 11:30:34;;;;;;;19.85;10.90;;;;;;;;;;5068652;28;20055;-81
2022/01/26 11:33:02;;;;;;;21.70;12.25;;;;;;;;;;5058823;28;20055;-79
2022/01/26 11:35:48;;;;;;;17.20;11.55;;;;;;;;;;5087599;28;20032;-78
2022/01/26 11:46:54;;;;;;;19.88;12.23;;;;;;;;;;5071467;28;20073;-76
2022/01/26 11:49:39;;;;;;;20.75;14.23;;;;;;;;;;5079698;28;20041;-84
2022/01/26 11:52:06;;;;;;;17.70;11.70;;;;;;;;;;5084153;28;20059;-82
2022/01/26 11:54:53;;;;;;;19.20;13.15;;;;;;;;;;5093247;28;20036;-77
2022/01/26 11:57:22;;;;;;;22.42;13.82;;;;;;;;;;5061519;28;20024;-80
2022/01/26 12:00:09;;;;;;;17.20;10.95;;;;;;;;;;5061319;28;20021;-79
2022/01/26 12:02:52;;;;;;;19.25;12.63;;;;;;;;;;5079877;28;20024;-78
2022/01/26 12:05:22;;;;;;;23.73;14.07;;;;;;;;;;5072664;28;20028;-80
2022/01/26 12:07:55;;;;;;;35.25;22.70;;;;;;;;;;5072513;28;20121;-80
2022/01/26 12:10:32;;;;;;;19.05;13.38;;;;;;;;;;5062369;28;20037;-81
2022/01/26 12:13:00;;;;;;;19.55;11.70;;;;;;;;;;5078268;28;20064;-80
2022/01/26 12:15:27;;;;;;;15.98;9.23;;;;;;;;;;5082219;28;20140;-80
2022/01/26 12:18:15;;;;;;;19.60;11.27;;;;;;;;;;5077567;28;20028;-81
2022/01/26 12:42:41;;;;;;;16.83;10.23;;;;;;;;;;5070822;28;20043;-82
2022/01/26 12:45:08;;;;;;;12.60;7.97;;;;;;;;;;5067232;28;20123;-79
2022/01/26 12:47:34;;;;;;;10.45;7.07;;;;;;;;;;5068773;28;20031;-78
2022/01/26 12:50:00;;;;;;;94.22;32.55;;;;;;;;;;5069089;28;20123;-82
2022/01/26 12:52:28;;;;;;;113.50;35.60;;;;;;;;;;5069302;28;20370;-79
2022/01/26 12:54:54;;;;;;;62.53;23.63;;;;;;;;;;5072396;28;20032;-79
2022/01/26 12:57:20;;;;;;;46.10;16.33;;;;;;;;;;5072140;28;20536;-82
2022/01/26 12:59:47;;;;;;;23.33;12.70;;;;;;;;;;5072803;28;20021;-83
2022/01/26 13:02:13;;;;;;;21.30;14.10;;;;;;;;;;5078700;28;20039;-80
2022/01/26 13:04:39;;;;;;;28.95;16.63;;;;;;;;;;5091186;28;20493;-83
2022/01/26 13:07:05;;;;;;;16.27;10.77;;;;;;;;;;5072334;28;20025;-80
2022/01/26 13:09:39;;;;;;;15.05;8.55;;;;;;;;;;5074550;28;20443;-83
2022/01/26 13:12:05;;;;;;;12.93;8.65;;;;;;;;;;5078397;28;20036;-80
2022/01/26 13:14:41;;;;;;;15.05;10.10;;;;;;;;;;5069318;28;20410;-78
2022/01/26 13:25:13;;;;;;;34.95;16.17;;;;;;;;;;5066054;28;20069;-80
2022/01/26 13:30:48;;;;;;;21.30;11.90;;;;;;;;;;5071233;28;20044;-79
2022/01/26 13:57:43;;;;;;;19.77;12.15;;;;;;;;;;5075902;28;19912;-83
2022/01/26 14:00:10;;;;;;;22.50;14.80;;;;;;;;;;5077740;28;20036;-83
2022/01/26 14:02:38;;;;;;;21.40;12.10;;;;;;;;;;5072288;28;20024;-81
2022/01/26 14:05:05;;;;;;;19.23;11.75;;;;;;;;;;5071354;28;20502;-79
2022/01/26 14:07:31;;;;;;;16.98;11.05;;;;;;;;;;5072371;28;20070;-80
2022/01/26 14:09:57;;;;;;;33.80;14.98;;;;;;;;;;5071428;28;20479;-81
2022/01/26 14:12:28;;;;;;;17.13;11.88;;;;;;;;;;5070394;28;20496;-80
2022/01/26 14:14:57;;;;;;;18.88;13.73;;;;;;;;;;5065676;28;20032;-79
2022/01/26 14:22:59;;;;;;;15.63;10.50;;;;;;;;;;5067057;28;20367;-81
2022/01/26 14:25:29;;;;;;;18.20;10.90;;;;;;;;;;5066885;28;20389;-85
2022/01/26 14:28:00;;;;;;;20.50;12.25;;;;;;;;;;5068546;28;20045;-82
2022/01/26 14:33:14;;;;;;;24.63;15.48;;;;;;;;;;5062553;28;20107;-84
2022/01/26 14:35:52;;;;;;;22.15;14.23;;;;;;;;;;5070106;28;20632;-80
2022/01/26 15:22:50;;;;;;;17.80;11.52;;;;;;;;;;5069532;28;20126;-82
2022/01/26 15:43:40;;;;;;;17.88;12.45;;;;;;;;;;5070102;28;20041;-79
2022/01/26 15:49:11;;;;;;;17.13;10.85;;;;;;;;;;5073847;28;20063;-78
2022/01/26 16:05:23;;;;;;;20.98;12.80;;;;;;;;;;5066182;28;20085;-81
2022/01/26 16:08:08;;;;;;;18.00;11.10;;;;;;;;;;5053888;28;20033;-83
2022/01/26 18:27:04;;;;;;;16.40;11.13;;;;;;;;;;5073048;28;20039;-81
2022/01/26 18:32:27;;;;;;;20.02;13.45;;;;;;;;;;5072517;28;20051;-79
2022/01/26 18:51:12;;;;;;;19.83;11.93;;;;;;;;;;5071458;28;20494;-83
2022/01/26 18:53:38;;;;;;;26.23;16.42;;;;;;;;;;5071918;28;20056;-81
2022/01/26 18:56:04;;;;;;;26.95;19.25;;;;;;;;;;5070606;28;20025;-83
2022/01/26 18:58:30;;;;;;;24.58;17.27;;;;;;;;;;5071928;28;20028;-80
2022/01/26 19:00:56;;;;;;;25.35;18.35;;;;;;;;;;5071860;28;20028;-83
2022/01/26 19:03:22;;;;;;;27.90;18.38;;;;;;;;;;5071689;28;20399;-81
2022/01/26 19:05:48;;;;;;;23.60;16.08;;;;;;;;;;5070065;28;20028;-82
2022/01/26 19:08:15;;;;;;;26.13;18.83;;;;;;;;;;5071773;28;20024;-82
2022/01/26 19:10:41;;;;;;;23.90;16.83;;;;;;;;;;5074115;28;20059;-82
2022/01/26 19:13:07;;;;;;;40.03;24.00;;;;;;;;;;5075274;28;20055;-82
2022/01/26 19:15:34;;;;;;;25.98;17.83;;;;;;;;;;5075214;28;20124;-82
2022/01/26 19:23:44;;;;;;;20.98;14.93;;;;;;;;;;5074907;28;20089;-82
2022/01/26 19:26:18;;;;;;;31.25;20.85;;;;;;;;;;5081133;28;20047;-80
2022/01/26 19:28:51;;;;;;;;;;;;;;;;;;5084962;28;20037;-83
2022/01/26 19:32:01;;;;;;;45.35;28.02;;;;;;;;;;5084077;28;19912;-80
2022/01/26 19:52:46;;;;;;;24.38;16.70;;;;;;;;;;5095031;28;20576;-81
2022/01/26 19:55:13;;;;;;;29.85;21.63;;;;;;;;;;5094600;28;20024;-82
2022/01/26 19:57:41;;;;;;;33.05;22.67;;;;;;;;;;5093207;28;20032;-84
2022/01/26 20:00:07;;;;;;;38.80;27.50;;;;;;;;;;5094587;28;20024;-82
2022/01/26 20:02:33;;;;;;;40.40;27.17;;;;;;;;;;5094479;28;20038;-81
2022/01/26 20:04:59;;;;;;;44.38;30.45;;;;;;;;;;5094700;28;20035;-81
2022/01/26 20:07:29;;;;;;;88.07;45.63;;;;;;;;;;5092848;28;20084;-80
2022/01/26 20:09:59;;;;;;;28.67;21.35;;;;;;;;;;5094335;28;20032;-83
2022/01/26 20:12:35;;;;;;;35.08;21.48;;;;;;;;;;5094052;28;20024;-82
2022/01/26 20:15:01;;;;;;;26.48;17.90;;;;;;;;;;5094379;28;20035;-83
2022/01/26 20:17:27;;;;;;;31.98;20.85;;;;;;;;;;5093984;28;20024;-82
2022/01/26 20:19:54;;;;;;;30.83;19.60;;;;;;;;;;5092374;28;20062;-81
2022/01/26 20:22:21;;;;;;;25.40;15.73;;;;;;;;;;5091245;28;20027;-83
2022/01/26 20:24:47;;;;;;;33.78;23.05;;;;;;;;;;5092845;28;20036;-83
2022/01/26 20:27:17;;;;;;;21.30;13.68;;;;;;;;;;5093931;28;20379;-81
2022/01/26 20:29:47;;;;;;;32.95;21.08;;;;;;;;;;5092610;28;20060;-80
2022/01/26 20:32:14;;;;;;;31.17;20.15;;;;;;;;;;5093429;28;20069;-83
2022/01/26 20:34:41;;;;;;;26.05;16.70;;;;;;;;;;5093939;28;20040;-80
2022/01/26 20:37:07;;;;;;;32.47;21.33;;;;;;;;;;5094944;28;20379;-81
2022/01/26 20:39:33;;;;;;;27.58;19.08;;;;;;;;;;5094531;28;20025;-82
2022/01/26 20:42:00;;;;;;;35.60;24.00;;;;;;;;;;5094090;28;20020;-79
2022/01/26 20:44:26;;;;;;;30.92;19.52;;;;;;;;;;5093548;28;20032;-81
2022/01/26 20:46:52;;;;;;;30.42;20.10;;;;;;;;;;5093862;28;20028;-80
2022/01/26 20:49:18;;;;;;;35.20;23.17;;;;;;;;;;5093045;28;20072;-81
2022/01/26 20:51:45;;;;;;;34.72;21.95;;;;;;;;;;5093541;28;20067;-79
2022/01/26 20:54:13;;;;;;;29.58;20.67;;;;;;;;;;5093064;28;20028;-80
2022/01/26 20:56:39;;;;;;;37.55;26.92;;;;;;;;;;5093728;28;20019;-80
2022/01/26 20:59:05;;;;;;;31.17;22.17;;;;;;;;;;5093153;28;20023;-81
2022/01/26 21:01:32;;;;;;;25.40;16.98;;;;;;;;;;5092946;28;20058;-82
2022/01/26 21:03:58;;;;;;;24.30;16.88;;;;;;;;;;5093394;28;20058;-83
2022/01/26 21:06:24;;;;;;;21.67;14.95;;;;;;;;;;5092921;28;20020;-80
2022/01/26 21:08:51;;;;;;;26.13;16.42;;;;;;;;;;5093325;28;20101;-81
2022/01/26 21:11:17;;;;;;;24.48;15.65;;;;;;;;;;5092820;28;20058;-80
2022/01/26 21:13:44;;;;;;;17.30;12.18;;;;;;;;;;5093321;28;20519;-81
2022/01/26 21:16:11;;;;;;;37.95;26.70;;;;;;;;;;5093032;28;20082;-83
2022/01/26 21:18:37;;;;;;;47.28;32.13;;;;;;;;;;5093101;28;20024;-82
2022/01/26 21:21:04;;;;;;;24.05;17.77;;;;;;;;;;5091637;28;20047;-80
2022/01/26 21:23:31;;;;;;;22.88;15.32;;;;;;;;;;5092778;28;20126;-83
2022/01/26 21:25:57;;;;;;;20.70;15.45;;;;;;;;;;5093180;28;20020;-80
2022/01/26 21:28:23;;;;;;;35.92;24.42;;;;;;;;;;5092181;28;20379;-80
2022/01/26 21:30:49;;;;;;;20.17;14.88;;;;;;;;;;5092777;28;20173;-81
2022/01/26 21:33:18;;;;;;;39.30;25.35;;;;;;;;;;5092057;28;20027;-82
2022/01/26 21:35:44;;;;;;;30.80;19.83;;;;;;;;;;5092799;28;20036;-83
2022/01/26 21:38:14;;;;;;;28.70;18.73;;;;;;;;;;5092675;28;20024;-80
2022/01/26 21:40:41;;;;;;;30.73;21.15;;;;;;;;;;5086852;28;20034;-82
2022/01/26 21:43:08;;;;;;;27.83;20.20;;;;;;;;;;5078030;28;20028;-83
2022/01/26 21:45:34;;;;;;;33.25;23.35;;;;;;;;;;5076361;28;20035;-79
2022/01/26 21:48:01;;;;;;;23.98;17.35;;;;;;;;;;5081657;28;20020;-81
2022/01/26 21:50:27;;;;;;;25.50;17.20;;;;;;;;;;5080200;28;20455;-80
2022/01/26 21:52:55;;;;;;;23.02;15.70;;;;;;;;;;5082202;28;20103;-82
2022/01/26 21:55:21;;;;;;;25.83;18.83;;;;;;;;;;5081986;28;20467;-80
2022/01/26 21:57:48;;;;;;;34.15;23.90;;;;;;;;;;5079340;28;20386;-80
2022/01/26 22:00:21;;;;;;;41.22;25.80;;;;;;;;;;5082471;28;20054;-82
2022/01/26 22:02:53;;;;;;;31.48;21.65;;;;;;;;;;5077310;28;20051;-80